sensor_id;sensor_type;location;lat;lon;timestamp;temperature;humidity
42663;DHT22;44330;51.360;6.686;2023-06-22T00:00:55;21.70;99.90
42663;DHT22;44330;51.360;6.686;2023-06-22T00:03:22;21.70;1.00
42663;DHT22;44330;51.360;6.686;2023-06-22T00:05:49;21.70;1.00
42663;DHT22;44330;51.360;6.686;2023-06-22T00:08:16;21.60;1.00
42663;DHT22;44330;51.360;6.686;2023-06-22T00:10:42;21.50;99.90
42663;DHT22;44330;51.360;6.686;2023-06-22T00:13:08;21.60;1.00
42663;DHT22;44330;51.360;6.686;2023-06-22T00:15:35;21.60;55.50
42663;DHT22;44330;51.360;6.686;2023-06-22T00:18:00;21.50;1.00
42663;DHT22;44330;51.360;6.686;2023-06-22T00:20:27;21.60;65.60
42663;DHT22;44330;51.360;6.686;2023-06-22T00:23:00;21.50;99.90
42663;DHT22;44330;51.360;6.686;2023-06-22T00:25:26;21.50;99.90
42663;DHT22;44330;51.360;6.686;2023-06-22T00:27:52;21.50;99.90
42663;DHT22;44330;51.360;6.686;2023-06-22T00:30:18;21.50;1.00
42663;DHT22;44330;51.360;6.686;2023-06-22T00:32:44;21.40;99.90
42663;DHT22;44330;51.360;6.686;2023-06-22T00:37:36;21.30;99.90
42663;DHT22;44330;51.360;6.686;2023-06-22T00:40:04;21.30;99.90
42663;DHT22;44330;51.360;6.686;2023-06-22T00:42:30;21.30;1.00
42663;DHT22;44330;51.360;6.686;2023-06-22T00:44:56;21.30;1.00
42663;DHT22;44330;51.360;6.686;2023-06-22T00:47:21;21.20;53.10
42663;DHT22;44330;51.360;6.686;2023-06-22T00:49:47;21.20;99.90
42663;DHT22;44330;51.360;6.686;2023-06-22T00:52:17;21.20;92.10
42663;DHT22;44330;51.360;6.686;2023-06-22T00:54:47;21.20;1.00
42663;DHT22;44330;51.360;6.686;2023-06-22T00:57:14;21.10;99.90
42663;DHT22;44330;51.360;6.686;2023-06-22T00:59:46;21.10;99.90
42663;DHT22;44330;51.360;6.686;2023-06-22T01:02:13;21.10;1.00
42663;DHT22;44330;51.360;6.686;2023-06-22T01:04:39;21.10;99.90
42663;DHT22;44330;51.360;6.686;2023-06-22T01:07:31;21.10;99.90
42663;DHT22;44330;51.360;6.686;2023-06-22T01:12:44;21.00;99.90
42663;DHT22;44330;51.360;6.686;2023-06-22T01:15:11;20.90;99.90
42663;DHT22;44330;51.360;6.686;2023-06-22T01:17:41;20.90;99.90
42663;DHT22;44330;51.360;6.686;2023-06-22T01:20:09;21.00;99.90
42663;DHT22;44330;51.360;6.686;2023-06-22T01:22:55;20.90;1.00
42663;DHT22;44330;51.360;6.686;2023-06-22T01:25:46;21.00;1.00
42663;DHT22;44330;51.360;6.686;2023-06-22T01:29:05;20.90;1.00
42663;DHT22;44330;51.360;6.686;2023-06-22T01:31:25;20.90;50.00
42663;DHT22;44330;51.360;6.686;2023-06-22T01:33:54;20.80;99.90
42663;DHT22;44330;51.360;6.686;2023-06-22T01:36:22;20.90;3.50
42663;DHT22;44330;51.360;6.686;2023-06-22T01:38:48;20.90;99.90
42663;DHT22;44330;51.360;6.686;2023-06-22T01:41:16;20.90;99.90
42663;DHT22;44330;51.360;6.686;2023-06-22T01:43:43;20.90;99.90
42663;DHT22;44330;51.360;6.686;2023-06-22T01:46:09;20.90;74.50
42663;DHT22;44330;51.360;6.686;2023-06-22T01:48:35;20.90;99.90
42663;DHT22;44330;51.360;6.686;2023-06-22T01:51:01;20.90;34.40
42663;DHT22;44330;51.360;6.686;2023-06-22T01:53:27;20.90;99.90
42663;DHT22;44330;51.360;6.686;2023-06-22T01:55:52;20.80;99.90
42663;DHT22;44330;51.360;6.686;2023-06-22T01:58:21;20.80;59.90
42663;DHT22;44330;51.360;6.686;2023-06-22T02:00:53;20.80;99.90
42663;DHT22;44330;51.360;6.686;2023-06-22T02:03:31;20.80;14.20
42663;DHT22;44330;51.360;6.686;2023-06-22T02:06:08;20.80;99.90
42663;DHT22;44330;51.360;6.686;2023-06-22T02:08:41;20.80;1.00
42663;DHT22;44330;51.360;6.686;2023-06-22T02:11:09;20.80;99.90
42663;DHT22;44330;51.360;6.686;2023-06-22T02:13:36;20.80;99.90
42663;DHT22;44330;51.360;6.686;2023-06-22T02:16:03;20.90;1.00
42663;DHT22;44330;51.360;6.686;2023-06-22T02:18:29;20.80;99.90
42663;DHT22;44330;51.360;6.686;2023-06-22T02:20:54;20.80;1.00
42663;DHT22;44330;51.360;6.686;2023-06-22T02:23:20;20.80;99.90
42663;DHT22;44330;51.360;6.686;2023-06-22T02:25:45;20.70;34.90
42663;DHT22;44330;51.360;6.686;2023-06-22T02:28:11;20.70;72.90
42663;DHT22;44330;51.360;6.686;2023-06-22T02:30:36;20.70;99.90
42663;DHT22;44330;51.360;6.686;2023-06-22T02:33:02;20.60;99.90
42663;DHT22;44330;51.360;6.686;2023-06-22T02:35:28;20.60;99.90
42663;DHT22;44330;51.360;6.686;2023-06-22T02:37:59;20.60;46.50
42663;DHT22;44330;51.360;6.686;2023-06-22T02:40:26;20.60;99.90
42663;DHT22;44330;51.360;6.686;2023-06-22T02:42:52;20.50;99.90
42663;DHT22;44330;51.360;6.686;2023-06-22T02:45:17;20.50;99.90
42663;DHT22;44330;51.360;6.686;2023-06-22T02:47:43;20.50;99.90
42663;DHT22;44330;51.360;6.686;2023-06-22T02:50:09;20.50;99.90
42663;DHT22;44330;51.360;6.686;2023-06-22T02:52:34;20.40;99.90
42663;DHT22;44330;51.360;6.686;2023-06-22T02:55:00;20.40;99.90
42663;DHT22;44330;51.360;6.686;2023-06-22T02:57:26;20.40;99.90
42663;DHT22;44330;51.360;6.686;2023-06-22T02:59:51;20.40;99.90
42663;DHT22;44330;51.360;6.686;2023-06-22T03:02:17;20.40;99.90
42663;DHT22;44330;51.360;6.686;2023-06-22T03:04:43;20.40;99.90
42663;DHT22;44330;51.360;6.686;2023-06-22T03:07:08;20.30;99.90
42663;DHT22;44330;51.360;6.686;2023-06-22T03:09:34;20.30;99.90
42663;DHT22;44330;51.360;6.686;2023-06-22T03:11:59;20.20;99.90
42663;DHT22;44330;51.360;6.686;2023-06-22T03:14:25;20.20;99.90
42663;DHT22;44330;51.360;6.686;2023-06-22T03:16:51;20.10;99.90
42663;DHT22;44330;51.360;6.686;2023-06-22T03:19:17;20.20;99.90
42663;DHT22;44330;51.360;6.686;2023-06-22T03:21:42;20.10;99.90
42663;DHT22;44330;51.360;6.686;2023-06-22T03:24:08;20.20;99.90
42663;DHT22;44330;51.360;6.686;2023-06-22T03:26:34;20.10;99.90
42663;DHT22;44330;51.360;6.686;2023-06-22T03:29:00;20.10;1.00
42663;DHT22;44330;51.360;6.686;2023-06-22T03:31:25;20.10;1.00
42663;DHT22;44330;51.360;6.686;2023-06-22T03:33:51;20.00;1.00
42663;DHT22;44330;51.360;6.686;2023-06-22T03:36:18;20.10;1.00
42663;DHT22;44330;51.360;6.686;2023-06-22T03:38:47;20.00;1.00
42663;DHT22;44330;51.360;6.686;2023-06-22T03:41:12;20.00;1.00
42663;DHT22;44330;51.360;6.686;2023-06-22T03:43:38;19.90;1.00
42663;DHT22;44330;51.360;6.686;2023-06-22T03:46:04;19.90;1.00
42663;DHT22;44330;51.360;6.686;2023-06-22T03:48:30;19.90;1.00
42663;DHT22;44330;51.360;6.686;2023-06-22T03:50:55;20.00;1.00
42663;DHT22;44330;51.360;6.686;2023-06-22T03:53:21;20.00;1.00
42663;DHT22;44330;51.360;6.686;2023-06-22T03:55:51;20.00;1.00
42663;DHT22;44330;51.360;6.686;2023-06-22T03:58:21;20.00;1.00
42663;DHT22;44330;51.360;6.686;2023-06-22T04:00:51;20.00;1.00
42663;DHT22;44330;51.360;6.686;2023-06-22T04:03:17;20.10;1.00
42663;DHT22;44330;51.360;6.686;2023-06-22T04:05:46;20.10;1.00
42663;DHT22;44330;51.360;6.686;2023-06-22T04:08:13;20.10;1.00
42663;DHT22;44330;51.360;6.686;2023-06-22T04:10:38;20.10;1.00
42663;DHT22;44330;51.360;6.686;2023-06-22T04:13:04;20.20;1.00
42663;DHT22;44330;51.360;6.686;2023-06-22T04:15:29;20.20;1.00
42663;DHT22;44330;51.360;6.686;2023-06-22T04:17:56;20.20;1.00
42663;DHT22;44330;51.360;6.686;2023-06-22T04:20:22;20.30;1.00
42663;DHT22;44330;51.360;6.686;2023-06-22T04:22:48;20.40;1.00
42663;DHT22;44330;51.360;6.686;2023-06-22T04:25:13;20.30;1.00
42663;DHT22;44330;51.360;6.686;2023-06-22T04:27:39;20.30;1.00
42663;DHT22;44330;51.360;6.686;2023-06-22T04:30:08;20.40;1.00
42663;DHT22;44330;51.360;6.686;2023-06-22T04:32:34;20.40;99.90
42663;DHT22;44330;51.360;6.686;2023-06-22T04:35:02;20.40;99.90
42663;DHT22;44330;51.360;6.686;2023-06-22T04:37:30;20.40;99.90
42663;DHT22;44330;51.360;6.686;2023-06-22T04:39:55;20.40;99.90
42663;DHT22;44330;51.360;6.686;2023-06-22T04:42:21;20.40;99.90
42663;DHT22;44330;51.360;6.686;2023-06-22T04:44:46;20.50;99.90
42663;DHT22;44330;51.360;6.686;2023-06-22T04:47:12;20.40;99.90
42663;DHT22;44330;51.360;6.686;2023-06-22T04:49:37;20.50;99.90
42663;DHT22;44330;51.360;6.686;2023-06-22T04:52:05;20.40;99.90
42663;DHT22;44330;51.360;6.686;2023-06-22T04:54:31;20.50;99.90
42663;DHT22;44330;51.360;6.686;2023-06-22T04:57:03;20.50;99.90
42663;DHT22;44330;51.360;6.686;2023-06-22T04:59:30;20.50;99.90
42663;DHT22;44330;51.360;6.686;2023-06-22T05:01:57;20.50;99.90
42663;DHT22;44330;51.360;6.686;2023-06-22T05:04:24;20.50;99.90
42663;DHT22;44330;51.360;6.686;2023-06-22T05:06:51;20.50;99.90
42663;DHT22;44330;51.360;6.686;2023-06-22T05:09:17;20.50;99.90
42663;DHT22;44330;51.360;6.686;2023-06-22T05:11:43;20.60;99.90
42663;DHT22;44330;51.360;6.686;2023-06-22T05:14:09;20.50;99.90
42663;DHT22;44330;51.360;6.686;2023-06-22T05:16:35;20.60;99.90
42663;DHT22;44330;51.360;6.686;2023-06-22T05:19:01;20.50;99.90
42663;DHT22;44330;51.360;6.686;2023-06-22T05:21:29;20.60;99.90
42663;DHT22;44330;51.360;6.686;2023-06-22T05:23:55;20.60;99.90
42663;DHT22;44330;51.360;6.686;2023-06-22T05:26:25;20.70;99.90
42663;DHT22;44330;51.360;6.686;2023-06-22T05:28:51;20.60;99.90
42663;DHT22;44330;51.360;6.686;2023-06-22T05:31:17;20.60;99.90
42663;DHT22;44330;51.360;6.686;2023-06-22T05:33:45;20.60;99.90
42663;DHT22;44330;51.360;6.686;2023-06-22T05:36:11;20.70;99.90
42663;DHT22;44330;51.360;6.686;2023-06-22T05:38:38;20.60;1.00
42663;DHT22;44330;51.360;6.686;2023-06-22T05:41:04;20.60;1.00
42663;DHT22;44330;51.360;6.686;2023-06-22T05:43:29;20.60;1.00
42663;DHT22;44330;51.360;6.686;2023-06-22T05:45:55;20.60;1.00
42663;DHT22;44330;51.360;6.686;2023-06-22T05:48:20;20.60;1.00
42663;DHT22;44330;51.360;6.686;2023-06-22T05:50:46;20.60;99.90
42663;DHT22;44330;51.360;6.686;2023-06-22T05:53:12;20.60;99.90
42663;DHT22;44330;51.360;6.686;2023-06-22T05:55:37;20.60;99.90
42663;DHT22;44330;51.360;6.686;2023-06-22T05:58:03;20.60;99.90
42663;DHT22;44330;51.360;6.686;2023-06-22T06:00:29;20.70;99.90
42663;DHT22;44330;51.360;6.686;2023-06-22T06:02:54;20.80;99.90
42663;DHT22;44330;51.360;6.686;2023-06-22T06:05:20;20.90;47.00
42663;DHT22;44330;51.360;6.686;2023-06-22T06:07:46;20.90;99.90
42663;DHT22;44330;51.360;6.686;2023-06-22T06:10:12;20.80;99.90
42663;DHT22;44330;51.360;6.686;2023-06-22T06:12:38;20.80;99.90
42663;DHT22;44330;51.360;6.686;2023-06-22T06:15:04;20.80;99.90
42663;DHT22;44330;51.360;6.686;2023-06-22T06:17:30;20.70;99.90
42663;DHT22;44330;51.360;6.686;2023-06-22T06:19:55;20.70;99.90
42663;DHT22;44330;51.360;6.686;2023-06-22T06:22:21;20.70;99.90
42663;DHT22;44330;51.360;6.686;2023-06-22T06:24:49;20.80;99.90
42663;DHT22;44330;51.360;6.686;2023-06-22T06:27:15;20.80;99.90
42663;DHT22;44330;51.360;6.686;2023-06-22T06:29:40;20.80;99.90
42663;DHT22;44330;51.360;6.686;2023-06-22T06:32:06;20.80;99.90
42663;DHT22;44330;51.360;6.686;2023-06-22T06:34:32;20.80;99.90
42663;DHT22;44330;51.360;6.686;2023-06-22T06:36:58;20.80;99.90
42663;DHT22;44330;51.360;6.686;2023-06-22T06:39:23;20.70;99.90
42663;DHT22;44330;51.360;6.686;2023-06-22T06:41:49;20.70;99.90
42663;DHT22;44330;51.360;6.686;2023-06-22T06:44:15;20.70;1.00
42663;DHT22;44330;51.360;6.686;2023-06-22T06:46:40;20.70;99.90
42663;DHT22;44330;51.360;6.686;2023-06-22T06:49:07;20.80;99.90
42663;DHT22;44330;51.360;6.686;2023-06-22T06:51:32;20.80;99.90
42663;DHT22;44330;51.360;6.686;2023-06-22T06:53:58;20.90;1.00
42663;DHT22;44330;51.360;6.686;2023-06-22T06:56:24;21.00;99.90
42663;DHT22;44330;51.360;6.686;2023-06-22T06:58:50;21.10;69.60
42663;DHT22;44330;51.360;6.686;2023-06-22T07:01:16;21.10;99.90
42663;DHT22;44330;51.360;6.686;2023-06-22T07:03:42;21.20;99.90
42663;DHT22;44330;51.360;6.686;2023-06-22T07:06:08;21.20;99.90
42663;DHT22;44330;51.360;6.686;2023-06-22T07:08:34;21.00;14.90
42663;DHT22;44330;51.360;6.686;2023-06-22T07:11:01;21.10;99.90
42663;DHT22;44330;51.360;6.686;2023-06-22T07:13:27;21.20;99.90
42663;DHT22;44330;51.360;6.686;2023-06-22T07:15:52;21.40;99.90
42663;DHT22;44330;51.360;6.686;2023-06-22T07:18:18;21.30;99.90
42663;DHT22;44330;51.360;6.686;2023-06-22T07:20:43;21.30;1.00
42663;DHT22;44330;51.360;6.686;2023-06-22T07:23:09;21.40;93.80
42663;DHT22;44330;51.360;6.686;2023-06-22T07:25:34;21.50;99.90
42663;DHT22;44330;51.360;6.686;2023-06-22T07:28:05;21.70;99.90
42663;DHT22;44330;51.360;6.686;2023-06-22T07:30:33;21.70;1.00
42663;DHT22;44330;51.360;6.686;2023-06-22T07:32:59;21.80;1.00
42663;DHT22;44330;51.360;6.686;2023-06-22T07:35:29;21.90;1.00
42663;DHT22;44330;51.360;6.686;2023-06-22T07:37:54;22.00;99.90
42663;DHT22;44330;51.360;6.686;2023-06-22T07:40:20;21.90;1.70
42663;DHT22;44330;51.360;6.686;2023-06-22T07:42:45;21.90;78.50
42663;DHT22;44330;51.360;6.686;2023-06-22T07:45:13;21.80;99.90
42663;DHT22;44330;51.360;6.686;2023-06-22T07:47:54;21.80;99.90
42663;DHT22;44330;51.360;6.686;2023-06-22T07:50:19;21.60;99.90
42663;DHT22;44330;51.360;6.686;2023-06-22T07:52:45;21.60;99.90
42663;DHT22;44330;51.360;6.686;2023-06-22T07:55:11;21.60;99.90
42663;DHT22;44330;51.360;6.686;2023-06-22T07:57:36;21.50;99.90
42663;DHT22;44330;51.360;6.686;2023-06-22T08:00:04;21.40;1.00
42663;DHT22;44330;51.360;6.686;2023-06-22T08:02:39;21.40;1.00
42663;DHT22;44330;51.360;6.686;2023-06-22T08:05:05;21.40;1.00
42663;DHT22;44330;51.360;6.686;2023-06-22T08:07:33;21.30;1.00
42663;DHT22;44330;51.360;6.686;2023-06-22T08:09:59;21.20;1.00
42663;DHT22;44330;51.360;6.686;2023-06-22T08:12:25;21.20;1.00
42663;DHT22;44330;51.360;6.686;2023-06-22T08:14:51;21.30;1.00
42663;DHT22;44330;51.360;6.686;2023-06-22T08:17:16;21.30;1.00
42663;DHT22;44330;51.360;6.686;2023-06-22T08:19:42;21.30;1.00
42663;DHT22;44330;51.360;6.686;2023-06-22T08:22:07;21.30;1.00
42663;DHT22;44330;51.360;6.686;2023-06-22T08:24:33;21.40;1.00
42663;DHT22;44330;51.360;6.686;2023-06-22T08:26:59;21.50;1.00
42663;DHT22;44330;51.360;6.686;2023-06-22T08:29:24;21.60;1.00
42663;DHT22;44330;51.360;6.686;2023-06-22T08:31:50;21.50;1.00
42663;DHT22;44330;51.360;6.686;2023-06-22T08:34:15;21.60;1.00
42663;DHT22;44330;51.360;6.686;2023-06-22T08:36:41;21.80;1.00
42663;DHT22;44330;51.360;6.686;2023-06-22T08:39:10;21.70;1.00
42663;DHT22;44330;51.360;6.686;2023-06-22T08:41:36;22.00;1.00
42663;DHT22;44330;51.360;6.686;2023-06-22T08:44:01;22.10;1.00
42663;DHT22;44330;51.360;6.686;2023-06-22T08:46:28;22.30;1.00
42663;DHT22;44330;51.360;6.686;2023-06-22T08:48:57;22.50;99.90
42663;DHT22;44330;51.360;6.686;2023-06-22T08:51:23;22.60;99.90
42663;DHT22;44330;51.360;6.686;2023-06-22T08:53:49;22.70;99.90
42663;DHT22;44330;51.360;6.686;2023-06-22T08:56:15;22.80;99.90
42663;DHT22;44330;51.360;6.686;2023-06-22T08:58:40;22.80;99.90
42663;DHT22;44330;51.360;6.686;2023-06-22T09:01:06;22.50;99.90
42663;DHT22;44330;51.360;6.686;2023-06-22T09:03:32;22.60;99.90
42663;DHT22;44330;51.360;6.686;2023-06-22T09:05:58;22.80;99.90
42663;DHT22;44330;51.360;6.686;2023-06-22T09:08:24;23.00;99.90
42663;DHT22;44330;51.360;6.686;2023-06-22T09:10:50;23.20;99.90
42663;DHT22;44330;51.360;6.686;2023-06-22T09:13:15;23.40;85.10
42663;DHT22;44330;51.360;6.686;2023-06-22T09:15:41;23.50;14.50
42663;DHT22;44330;51.360;6.686;2023-06-22T09:18:08;23.80;38.30
42663;DHT22;44330;51.360;6.686;2023-06-22T09:20:35;24.00;99.90
42663;DHT22;44330;51.360;6.686;2023-06-22T09:23:00;23.90;99.90
42663;DHT22;44330;51.360;6.686;2023-06-22T09:25:26;23.70;99.90
42663;DHT22;44330;51.360;6.686;2023-06-22T09:27:52;23.90;61.60
42663;DHT22;44330;51.360;6.686;2023-06-22T09:30:19;24.10;99.90
42663;DHT22;44330;51.360;6.686;2023-06-22T09:32:44;24.40;42.70
42663;DHT22;44330;51.360;6.686;2023-06-22T09:35:10;24.30;1.00
42663;DHT22;44330;51.360;6.686;2023-06-22T09:37:38;24.00;99.90
42663;DHT22;44330;51.360;6.686;2023-06-22T09:40:04;24.20;99.90
42663;DHT22;44330;51.360;6.686;2023-06-22T09:42:38;24.60;99.90
42663;DHT22;44330;51.360;6.686;2023-06-22T09:45:05;25.00;1.00
42663;DHT22;44330;51.360;6.686;2023-06-22T09:47:30;25.00;99.90
42663;DHT22;44330;51.360;6.686;2023-06-22T09:49:56;24.70;1.00
42663;DHT22;44330;51.360;6.686;2023-06-22T09:52:22;24.80;99.90
42663;DHT22;44330;51.360;6.686;2023-06-22T09:54:47;25.00;99.90
42663;DHT22;44330;51.360;6.686;2023-06-22T09:57:13;25.00;1.00
42663;DHT22;44330;51.360;6.686;2023-06-22T09:59:38;25.30;99.90
42663;DHT22;44330;51.360;6.686;2023-06-22T10:02:07;25.60;99.90
42663;DHT22;44330;51.360;6.686;2023-06-22T10:04:34;25.60;99.90
42663;DHT22;44330;51.360;6.686;2023-06-22T10:07:00;25.80;91.40
42663;DHT22;44330;51.360;6.686;2023-06-22T10:09:26;25.60;1.00
42663;DHT22;44330;51.360;6.686;2023-06-22T10:11:52;25.70;23.00
42663;DHT22;44330;51.360;6.686;2023-06-22T10:14:17;25.60;1.00
42663;DHT22;44330;51.360;6.686;2023-06-22T10:16:44;25.70;1.00
42663;DHT22;44330;51.360;6.686;2023-06-22T10:19:10;25.80;99.90
42663;DHT22;44330;51.360;6.686;2023-06-22T10:21:35;26.10;1.00
42663;DHT22;44330;51.360;6.686;2023-06-22T10:24:01;26.00;1.00
42663;DHT22;44330;51.360;6.686;2023-06-22T10:26:34;25.60;1.00
42663;DHT22;44330;51.360;6.686;2023-06-22T10:29:00;25.40;1.00
42663;DHT22;44330;51.360;6.686;2023-06-22T10:31:26;25.40;7.70
42663;DHT22;44330;51.360;6.686;2023-06-22T10:33:53;25.60;1.00
42663;DHT22;44330;51.360;6.686;2023-06-22T10:36:19;25.50;1.00
42663;DHT22;44330;51.360;6.686;2023-06-22T10:38:45;25.20;1.00
42663;DHT22;44330;51.360;6.686;2023-06-22T10:41:12;25.10;37.10
42663;DHT22;44330;51.360;6.686;2023-06-22T10:43:38;25.40;57.60
42663;DHT22;44330;51.360;6.686;2023-06-22T10:46:03;25.50;28.30
42663;DHT22;44330;51.360;6.686;2023-06-22T10:48:29;25.70;1.00
42663;DHT22;44330;51.360;6.686;2023-06-22T10:50:55;25.60;1.00
42663;DHT22;44330;51.360;6.686;2023-06-22T10:53:21;25.50;1.00
42663;DHT22;44330;51.360;6.686;2023-06-22T10:55:47;25.40;1.00
42663;DHT22;44330;51.360;6.686;2023-06-22T10:58:13;25.40;1.00
42663;DHT22;44330;51.360;6.686;2023-06-22T11:00:38;25.30;1.00
42663;DHT22;44330;51.360;6.686;2023-06-22T11:03:04;25.10;55.50
42663;DHT22;44330;51.360;6.686;2023-06-22T11:05:29;25.10;99.90
42663;DHT22;44330;51.360;6.686;2023-06-22T11:07:55;25.10;99.90
42663;DHT22;44330;51.360;6.686;2023-06-22T11:10:20;25.10;99.90
42663;DHT22;44330;51.360;6.686;2023-06-22T11:12:46;25.00;99.90
42663;DHT22;44330;51.360;6.686;2023-06-22T11:15:12;24.90;13.80
42663;DHT22;44330;51.360;6.686;2023-06-22T11:17:37;25.00;99.90
42663;DHT22;44330;51.360;6.686;2023-06-22T11:20:03;25.00;3.40
42663;DHT22;44330;51.360;6.686;2023-06-22T11:22:39;25.10;99.90
42663;DHT22;44330;51.360;6.686;2023-06-22T11:25:05;25.00;99.90
42663;DHT22;44330;51.360;6.686;2023-06-22T11:27:31;24.80;1.00
42663;DHT22;44330;51.360;6.686;2023-06-22T11:29:57;24.60;1.00
42663;DHT22;44330;51.360;6.686;2023-06-22T11:32:22;24.30;5.30
42663;DHT22;44330;51.360;6.686;2023-06-22T11:34:48;24.00;1.00
42663;DHT22;44330;51.360;6.686;2023-06-22T11:37:13;23.70;6.40
42663;DHT22;44330;51.360;6.686;2023-06-22T11:39:40;23.30;11.70
42663;DHT22;44330;51.360;6.686;2023-06-22T11:42:06;22.90;23.60
42663;DHT22;44330;51.360;6.686;2023-06-22T11:44:32;22.50;39.50
42663;DHT22;44330;51.360;6.686;2023-06-22T11:46:58;22.20;54.10
42663;DHT22;44330;51.360;6.686;2023-06-22T11:49:23;21.80;60.20
42663;DHT22;44330;51.360;6.686;2023-06-22T11:51:49;21.70;63.90
42663;DHT22;44330;51.360;6.686;2023-06-22T11:54:14;21.50;65.90
42663;DHT22;44330;51.360;6.686;2023-06-22T11:56:40;21.40;69.90
42663;DHT22;44330;51.360;6.686;2023-06-22T11:59:06;21.20;73.10
42663;DHT22;44330;51.360;6.686;2023-06-22T12:01:31;21.20;73.90
42663;DHT22;44330;51.360;6.686;2023-06-22T12:03:58;21.40;74.00
42663;DHT22;44330;51.360;6.686;2023-06-22T12:06:24;21.50;74.20
42663;DHT22;44330;51.360;6.686;2023-06-22T12:08:50;21.70;73.50
42663;DHT22;44330;51.360;6.686;2023-06-22T12:11:15;21.60;72.60
42663;DHT22;44330;51.360;6.686;2023-06-22T12:13:41;21.60;72.90
42663;DHT22;44330;51.360;6.686;2023-06-22T12:16:06;21.70;73.50
42663;DHT22;44330;51.360;6.686;2023-06-22T12:18:32;21.70;74.20
42663;DHT22;44330;51.360;6.686;2023-06-22T12:20:58;21.70;74.30
42663;DHT22;44330;51.360;6.686;2023-06-22T12:23:23;21.90;76.50
42663;DHT22;44330;51.360;6.686;2023-06-22T12:25:49;22.00;76.90
42663;DHT22;44330;51.360;6.686;2023-06-22T12:28:14;22.30;77.90
42663;DHT22;44330;51.360;6.686;2023-06-22T12:30:40;22.30;76.90
42663;DHT22;44330;51.360;6.686;2023-06-22T12:33:06;22.50;75.70
42663;DHT22;44330;51.360;6.686;2023-06-22T12:35:31;22.40;74.70
42663;DHT22;44330;51.360;6.686;2023-06-22T12:37:57;22.30;74.40
42663;DHT22;44330;51.360;6.686;2023-06-22T12:40:23;22.30;75.80
42663;DHT22;44330;51.360;6.686;2023-06-22T12:42:48;22.30;76.60
42663;DHT22;44330;51.360;6.686;2023-06-22T12:45:15;22.30;75.80
42663;DHT22;44330;51.360;6.686;2023-06-22T12:47:40;22.30;75.50
42663;DHT22;44330;51.360;6.686;2023-06-22T12:50:06;22.30;75.10
42663;DHT22;44330;51.360;6.686;2023-06-22T12:52:32;22.30;73.30
42663;DHT22;44330;51.360;6.686;2023-06-22T12:57:33;22.40;76.30
42663;DHT22;44330;51.360;6.686;2023-06-22T12:59:58;22.50;75.80
42663;DHT22;44330;51.360;6.686;2023-06-22T13:02:26;22.60;75.70
42663;DHT22;44330;51.360;6.686;2023-06-22T13:04:51;22.60;74.60
42663;DHT22;44330;51.360;6.686;2023-06-22T13:07:17;22.50;72.50
42663;DHT22;44330;51.360;6.686;2023-06-22T13:09:42;22.50;72.20
42663;DHT22;44330;51.360;6.686;2023-06-22T13:12:08;22.60;73.20
42663;DHT22;44330;51.360;6.686;2023-06-22T13:14:35;22.50;71.80
42663;DHT22;44330;51.360;6.686;2023-06-22T13:17:01;22.50;73.40
42663;DHT22;44330;51.360;6.686;2023-06-22T13:19:26;22.50;73.20
42663;DHT22;44330;51.360;6.686;2023-06-22T13:21:54;22.30;74.70
42663;DHT22;44330;51.360;6.686;2023-06-22T13:24:19;22.40;74.30
42663;DHT22;44330;51.360;6.686;2023-06-22T13:26:45;22.40;75.40
42663;DHT22;44330;51.360;6.686;2023-06-22T13:29:10;22.40;75.90
42663;DHT22;44330;51.360;6.686;2023-06-22T13:31:37;22.40;74.80
42663;DHT22;44330;51.360;6.686;2023-06-22T13:34:02;22.50;76.40
42663;DHT22;44330;51.360;6.686;2023-06-22T13:36:28;22.60;74.90
42663;DHT22;44330;51.360;6.686;2023-06-22T13:38:56;22.70;74.70
42663;DHT22;44330;51.360;6.686;2023-06-22T13:41:21;22.80;74.50
42663;DHT22;44330;51.360;6.686;2023-06-22T13:43:47;22.80;74.10
42663;DHT22;44330;51.360;6.686;2023-06-22T13:46:12;23.00;74.60
42663;DHT22;44330;51.360;6.686;2023-06-22T13:48:38;23.00;73.20
42663;DHT22;44330;51.360;6.686;2023-06-22T13:51:03;23.00;73.00
42663;DHT22;44330;51.360;6.686;2023-06-22T13:53:29;23.00;71.70
42663;DHT22;44330;51.360;6.686;2023-06-22T13:55:56;23.00;71.80
42663;DHT22;44330;51.360;6.686;2023-06-22T13:58:21;22.90;69.70
42663;DHT22;44330;51.360;6.686;2023-06-22T14:00:48;22.90;74.00
42663;DHT22;44330;51.360;6.686;2023-06-22T14:03:14;22.80;71.20
42663;DHT22;44330;51.360;6.686;2023-06-22T14:05:42;22.80;72.00
42663;DHT22;44330;51.360;6.686;2023-06-22T14:08:08;22.90;71.70
42663;DHT22;44330;51.360;6.686;2023-06-22T14:10:34;22.70;71.10
42663;DHT22;44330;51.360;6.686;2023-06-22T14:13:00;22.80;72.80
42663;DHT22;44330;51.360;6.686;2023-06-22T14:15:26;22.80;72.10
42663;DHT22;44330;51.360;6.686;2023-06-22T14:17:52;22.80;73.40
42663;DHT22;44330;51.360;6.686;2023-06-22T14:20:18;22.70;71.50
42663;DHT22;44330;51.360;6.686;2023-06-22T14:22:43;22.70;72.20
42663;DHT22;44330;51.360;6.686;2023-06-22T14:25:09;22.60;71.90
42663;DHT22;44330;51.360;6.686;2023-06-22T14:27:34;22.60;72.50
42663;DHT22;44330;51.360;6.686;2023-06-22T14:30:00;22.50;72.60
42663;DHT22;44330;51.360;6.686;2023-06-22T14:32:27;22.50;72.00
42663;DHT22;44330;51.360;6.686;2023-06-22T14:34:54;22.40;71.50
42663;DHT22;44330;51.360;6.686;2023-06-22T14:37:20;22.50;73.20
42663;DHT22;44330;51.360;6.686;2023-06-22T14:39:46;22.40;73.20
42663;DHT22;44330;51.360;6.686;2023-06-22T14:42:17;22.40;72.30
42663;DHT22;44330;51.360;6.686;2023-06-22T14:44:47;22.40;74.30
42663;DHT22;44330;51.360;6.686;2023-06-22T14:47:14;22.40;74.50
42663;DHT22;44330;51.360;6.686;2023-06-22T14:49:39;22.40;74.20
42663;DHT22;44330;51.360;6.686;2023-06-22T14:52:06;22.30;73.10
42663;DHT22;44330;51.360;6.686;2023-06-22T14:54:32;22.30;73.70
42663;DHT22;44330;51.360;6.686;2023-06-22T14:56:57;22.30;74.30
42663;DHT22;44330;51.360;6.686;2023-06-22T14:59:23;22.30;72.50
42663;DHT22;44330;51.360;6.686;2023-06-22T15:01:50;22.30;72.60
42663;DHT22;44330;51.360;6.686;2023-06-22T15:04:15;22.20;72.50
42663;DHT22;44330;51.360;6.686;2023-06-22T15:06:41;22.20;74.80
42663;DHT22;44330;51.360;6.686;2023-06-22T15:09:07;22.10;76.70
42663;DHT22;44330;51.360;6.686;2023-06-22T15:11:32;22.00;77.70
42663;DHT22;44330;51.360;6.686;2023-06-22T15:13:59;22.10;79.40
42663;DHT22;44330;51.360;6.686;2023-06-22T15:19:06;21.90;79.80
42663;DHT22;44330;51.360;6.686;2023-06-22T15:25:26;21.90;78.40
42663;DHT22;44330;51.360;6.686;2023-06-22T15:28:10;21.80;78.00
42663;DHT22;44330;51.360;6.686;2023-06-22T15:31:07;21.80;78.60
42663;DHT22;44330;51.360;6.686;2023-06-22T15:43:55;21.70;79.60
42663;DHT22;44330;51.360;6.686;2023-06-22T16:12:41;21.30;84.80
42663;DHT22;44330;51.360;6.686;2023-06-22T16:15:07;21.20;85.70
42663;DHT22;44330;51.360;6.686;2023-06-22T16:17:33;21.20;86.20
42663;DHT22;44330;51.360;6.686;2023-06-22T16:20:05;21.10;87.00
42663;DHT22;44330;51.360;6.686;2023-06-22T16:22:31;21.10;88.10